This demonstration page uses our WeatherBlox Daily Observations layout. Learn more.

39.29038, -76.61219

Hourly Observations for August 7, 2019

Temp ( °F °C ) Dew Point ( °F °C ) Humidity (%) Winds ( mph kmh ) Pressure ( in mb ) Visibility ( mi km ) Precip ( " mm )
12:54 am 00:54 undefined 74 23.3 67 19.4 79 79 undefined N/A 29.8 1009 N/A 0 0
1:54 am 01:54 undefined 75 23.9 68 20 79 79 undefined N/A 29.8 1009 N/A 0 0
2:54 am 02:54 undefined 75 23.9 69 20.6 82 82 undefined N/A 29.8 1009 N/A 0 0
3:54 am 03:54 undefined 74 23.3 70 21.1 88 88 undefined N/A 29.8 1009 N/A 0 0
4:54 am 04:54 undefined 74 23.3 71 21.7 91 91 undefined N/A 29.8 1009 N/A 0 0
5:54 am 05:54 undefined 74 23.3 71 21.7 91 91 undefined N/A 29.8 1009 N/A 0 0
6:54 am 06:54 undefined 75 23.9 71 21.7 88 88 undefined N/A 29.83 1010 N/A 0 0
7:54 am 07:54 undefined 78 25.6 71 21.7 79 79 undefined N/A 29.83 1010 N/A 0 0
8:54 am 08:54 undefined 82 27.8 71 21.7 69 69 undefined N/A 29.83 1010 N/A 0 0
9:54 am 09:54 undefined 84 28.9 73 22.8 70 70 undefined N/A 29.83 1010 N/A 0 0
10:54 am 10:54 undefined 87 30.6 74 23.3 65 65 undefined N/A 29.83 1010 N/A 0 0
11:54 am 11:54 undefined 88 31.1 73 22.8 61 61 undefined N/A 29.8 1009 N/A 0 0
12:54 pm 12:54 undefined 91 32.8 74 23.3 57 57 undefined N/A 29.8 1009 N/A 0 0
1:54 pm 13:54 undefined 89 31.7 72 22.2 57 57 undefined N/A 29.74 1007 N/A 0 0
2:54 pm 14:54 undefined 88 31.1 71 21.7 57 57 undefined N/A 29.68 1005 N/A 0 0
3:54 pm 15:54 undefined 75 23.9 70 21.1 84 84 undefined N/A 29.62 1003 N/A 0.18 4.572
4:54 pm 16:54 undefined 72 22.2 68 20 87 87 undefined N/A 29.74 1007 N/A 0.23 5.842
5:54 pm 17:54 undefined 74 23.3 70 21.1 88 88 undefined N/A 29.77 1008 N/A 0 0
6:54 pm 18:54 undefined 76 24.4 69 20.6 79 79 undefined N/A 29.8 1009 N/A 0 0
7:54 pm 19:54 undefined 74 23.3 69 20.6 85 85 undefined N/A 29.77 1008 N/A 0 0
8:54 pm 20:54 undefined 74 23.3 70 21.1 88 88 undefined N/A 29.77 1008 N/A 0 0
9:54 pm 21:54 undefined 73 22.8 70 21.1 90 90 undefined N/A 29.8 1009 N/A 0 0
10:54 pm 22:54 undefined 73 22.8 69 20.6 87 87 undefined N/A 29.8 1009 N/A 0 0
11:54 pm 23:54 undefined 73 22.8 69 20.6 87 87 undefined N/A 29.8 1009 N/A 0 0

Powered by AerisWeather